sensor_id;sensor_type;location;lat;lon;timestamp;pressure;altitude;pressure_sealevel;temperature;humidity
11339;BME280;5724;42.684;23.252;2023-06-10T00:01:27;93999.50;;;17.37;100.00
11339;BME280;5724;42.684;23.252;2023-06-10T00:03:53;93998.34;;;17.38;100.00
11339;BME280;5724;42.684;23.252;2023-06-10T00:06:19;93996.66;;;17.48;100.00
11339;BME280;5724;42.684;23.252;2023-06-10T00:08:47;93997.56;;;17.34;100.00
11339;BME280;5724;42.684;23.252;2023-06-10T00:11:13;93998.41;;;17.31;100.00
11339;BME280;5724;42.684;23.252;2023-06-10T00:13:38;93998.16;;;17.14;100.00
11339;BME280;5724;42.684;23.252;2023-06-10T00:16:04;94003.66;;;16.73;100.00
11339;BME280;5724;42.684;23.252;2023-06-10T00:18:29;93996.44;;;16.86;100.00
11339;BME280;5724;42.684;23.252;2023-06-10T00:20:57;94001.22;;;16.79;100.00
11339;BME280;5724;42.684;23.252;2023-06-10T00:23:22;93993.81;;;16.69;100.00
11339;BME280;5724;42.684;23.252;2023-06-10T00:25:50;93998.56;;;16.65;100.00
11339;BME280;5724;42.684;23.252;2023-06-10T00:28:15;93995.81;;;16.65;100.00
11339;BME280;5724;42.684;23.252;2023-06-10T00:30:41;94003.72;;;16.59;100.00
11339;BME280;5724;42.684;23.252;2023-06-10T00:33:06;94003.00;;;16.51;100.00
11339;BME280;5724;42.684;23.252;2023-06-10T00:35:32;93999.78;;;16.56;100.00
11339;BME280;5724;42.684;23.252;2023-06-10T00:37:57;93996.66;;;16.54;100.00
11339;BME280;5724;42.684;23.252;2023-06-10T00:40:22;93995.88;;;16.54;100.00
11339;BME280;5724;42.684;23.252;2023-06-10T00:42:48;93940.56;;;16.20;100.00
11339;BME280;5724;42.684;23.252;2023-06-10T00:45:13;93992.75;;;16.52;100.00
11339;BME280;5724;42.684;23.252;2023-06-10T00:47:39;93988.38;;;16.54;100.00
11339;BME280;5724;42.684;23.252;2023-06-10T00:50:05;93995.47;;;16.55;100.00
11339;BME280;5724;42.684;23.252;2023-06-10T00:52:31;93991.84;;;16.66;100.00
11339;BME280;5724;42.684;23.252;2023-06-10T00:54:59;93995.41;;;16.70;100.00
11339;BME280;5724;42.684;23.252;2023-06-10T00:57:25;94001.72;;;16.70;100.00
11339;BME280;5724;42.684;23.252;2023-06-10T00:59:51;94005.25;;;16.71;100.00
11339;BME280;5724;42.684;23.252;2023-06-10T01:02:17;93989.59;;;16.53;100.00
11339;BME280;5724;42.684;23.252;2023-06-10T01:04:42;93999.78;;;16.56;100.00
11339;BME280;5724;42.684;23.252;2023-06-10T01:07:18;94001.03;;;16.48;100.00
11339;BME280;5724;42.684;23.252;2023-06-10T01:10:05;93998.69;;;16.50;100.00
11339;BME280;5724;42.684;23.252;2023-06-10T01:12:41;93989.59;;;16.50;100.00
11339;BME280;5724;42.684;23.252;2023-06-10T01:15:15;94007.69;;;16.54;100.00
11339;BME280;5724;42.684;23.252;2023-06-10T01:17:57;94008.09;;;16.53;100.00
11339;BME280;5724;42.684;23.252;2023-06-10T01:20:25;94015.59;;;16.49;100.00
11339;BME280;5724;42.684;23.252;2023-06-10T01:22:56;93997.66;;;16.23;100.00
11339;BME280;5724;42.684;23.252;2023-06-10T01:25:23;94001.25;;;16.16;100.00
11339;BME280;5724;42.684;23.252;2023-06-10T01:27:54;93995.28;;;16.25;100.00
11339;BME280;5724;42.684;23.252;2023-06-10T01:30:27;94003.13;;;16.34;100.00
11339;BME280;5724;42.684;23.252;2023-06-10T01:32:58;94002.75;;;16.28;100.00
11339;BME280;5724;42.684;23.252;2023-06-10T01:35:25;94000.75;;;16.32;100.00
11339;BME280;5724;42.684;23.252;2023-06-10T01:37:56;94001.13;;;16.34;100.00
11339;BME280;5724;42.684;23.252;2023-06-10T01:40:23;93994.03;;;16.37;100.00
11339;BME280;5724;42.684;23.252;2023-06-10T01:42:51;93993.56;;;16.45;100.00
11339;BME280;5724;42.684;23.252;2023-06-10T01:45:17;93991.97;;;16.48;100.00
11339;BME280;5724;42.684;23.252;2023-06-10T01:47:43;94003.00;;;16.48;100.00
11339;BME280;5724;42.684;23.252;2023-06-10T01:50:08;94001.44;;;16.50;100.00
11339;BME280;5724;42.684;23.252;2023-06-10T01:52:34;93989.59;;;16.50;100.00
11339;BME280;5724;42.684;23.252;2023-06-10T01:55:00;93991.94;;;16.55;100.00
11339;BME280;5724;42.684;23.252;2023-06-10T01:57:25;93986.03;;;16.53;100.00
11339;BME280;5724;42.684;23.252;2023-06-10T01:59:50;93983.63;;;16.58;100.00
11339;BME280;5724;42.684;23.252;2023-06-10T02:02:16;93980.84;;;16.62;100.00
11339;BME280;5724;42.684;23.252;2023-06-10T02:04:41;93974.56;;;16.62;100.00
11339;BME280;5724;42.684;23.252;2023-06-10T02:07:07;93976.47;;;16.72;100.00
11339;BME280;5724;42.684;23.252;2023-06-10T02:09:32;93976.47;;;16.68;100.00
11339;BME280;5724;42.684;23.252;2023-06-10T02:12:01;93958.06;;;16.54;100.00
11339;BME280;5724;42.684;23.252;2023-06-10T02:14:27;93971.69;;;16.76;100.00
11339;BME280;5724;42.684;23.252;2023-06-10T02:16:52;93968.22;;;16.68;100.00
11339;BME280;5724;42.684;23.252;2023-06-10T02:19:22;93947.41;;;16.56;100.00
11339;BME280;5724;42.684;23.252;2023-06-10T02:21:47;93959.47;;;16.77;100.00
11339;BME280;5724;42.684;23.252;2023-06-10T02:24:13;93961.47;;;16.73;100.00
11339;BME280;5724;42.684;23.252;2023-06-10T02:26:38;93968.94;;;16.79;100.00
11339;BME280;5724;42.684;23.252;2023-06-10T02:29:05;93941.34;;;16.76;100.00
11339;BME280;5724;42.684;23.252;2023-06-10T02:31:31;93960.47;;;16.97;100.00
11339;BME280;5724;42.684;23.252;2023-06-10T02:33:56;93962.78;;;17.02;100.00
11339;BME280;5724;42.684;23.252;2023-06-10T02:36:22;93960.09;;;16.95;100.00
11339;BME280;5724;42.684;23.252;2023-06-10T02:38:49;93960.75;;;17.10;100.00
11339;BME280;5724;42.684;23.252;2023-06-10T02:41:15;93954.44;;;17.09;100.00
11339;BME280;5724;42.684;23.252;2023-06-10T02:43:40;93942.94;;;17.18;100.00
11339;BME280;5724;42.684;23.252;2023-06-10T02:46:06;93936.22;;;17.19;100.00
11339;BME280;5724;42.684;23.252;2023-06-10T02:48:31;93947.94;;;17.27;100.00
11339;BME280;5724;42.684;23.252;2023-06-10T02:50:57;93940.53;;;17.20;100.00
11339;BME280;5724;42.684;23.252;2023-06-10T02:53:22;93938.56;;;17.21;100.00
11339;BME280;5724;42.684;23.252;2023-06-10T02:55:48;93938.50;;;17.24;100.00
11339;BME280;5724;42.684;23.252;2023-06-10T02:58:13;93936.38;;;17.39;100.00
11339;BME280;5724;42.684;23.252;2023-06-10T03:00:39;93931.31;;;17.34;100.00
11339;BME280;5724;42.684;23.252;2023-06-10T03:03:06;93943.91;;;17.35;100.00
11339;BME280;5724;42.684;23.252;2023-06-10T03:05:32;93949.91;;;17.30;100.00
11339;BME280;5724;42.684;23.252;2023-06-10T03:07:58;93955.06;;;17.28;100.00
11339;BME280;5724;42.684;23.252;2023-06-10T03:10:24;93954.22;;;17.31;100.00
11339;BME280;5724;42.684;23.252;2023-06-10T03:12:50;93956.19;;;17.30;100.00
11339;BME280;5724;42.684;23.252;2023-06-10T03:15:15;93963.03;;;17.19;100.00
11339;BME280;5724;42.684;23.252;2023-06-10T03:17:41;93964.97;;;17.22;100.00
11339;BME280;5724;42.684;23.252;2023-06-10T03:20:07;93972.22;;;17.08;100.00
11339;BME280;5724;42.684;23.252;2023-06-10T03:22:35;93967.09;;;16.55;100.00
11339;BME280;5724;42.684;23.252;2023-06-10T03:25:01;93979.72;;;15.93;100.00
11339;BME280;5724;42.684;23.252;2023-06-10T03:27:27;93979.41;;;15.70;100.00
11339;BME280;5724;42.684;23.252;2023-06-10T03:29:52;93988.91;;;15.65;100.00
11339;BME280;5724;42.684;23.252;2023-06-10T03:32:18;93982.22;;;15.56;100.00
11339;BME280;5724;42.684;23.252;2023-06-10T03:34:43;93986.56;;;15.46;100.00
11339;BME280;5724;42.684;23.252;2023-06-10T03:37:10;93985.00;;;15.49;100.00
11339;BME280;5724;42.684;23.252;2023-06-10T03:39:35;93982.22;;;15.56;100.00
11339;BME280;5724;42.684;23.252;2023-06-10T03:42:01;93979.47;;;15.49;100.00
11339;BME280;5724;42.684;23.252;2023-06-10T03:44:27;93978.72;;;15.44;100.00
11339;BME280;5724;42.684;23.252;2023-06-10T03:46:54;93982.25;;;15.41;100.00
11339;BME280;5724;42.684;23.252;2023-06-10T03:49:19;93977.56;;;15.38;100.00
11339;BME280;5724;42.684;23.252;2023-06-10T03:51:45;93983.44;;;15.40;100.00
11339;BME280;5724;42.684;23.252;2023-06-10T03:54:10;93972.03;;;15.42;100.00
11339;BME280;5724;42.684;23.252;2023-06-10T03:56:36;93977.53;;;15.45;100.00
11339;BME280;5724;42.684;23.252;2023-06-10T03:59:01;93971.19;;;15.56;100.00
11339;BME280;5724;42.684;23.252;2023-06-10T04:01:27;93970.00;;;15.67;100.00
11339;BME280;5724;42.684;23.252;2023-06-10T04:03:53;93979.41;;;15.70;100.00
11339;BME280;5724;42.684;23.252;2023-06-10T04:06:20;93980.59;;;15.72;100.00
11339;BME280;5724;42.684;23.252;2023-06-10T04:08:47;93974.28;;;15.72;100.00
11339;BME280;5724;42.684;23.252;2023-06-10T04:11:12;93974.66;;;15.81;100.00
11339;BME280;5724;42.684;23.252;2023-06-10T04:13:38;93983.66;;;15.89;100.00
11339;BME280;5724;42.684;23.252;2023-06-10T04:16:04;93976.56;;;15.95;100.00
11339;BME280;5724;42.684;23.252;2023-06-10T04:18:29;93975.31;;;16.07;100.00
11339;BME280;5724;42.684;23.252;2023-06-10T04:20:55;93988.69;;;16.12;100.00
11339;BME280;5724;42.684;23.252;2023-06-10T04:23:21;93989.81;;;16.21;100.00
11339;BME280;5724;42.684;23.252;2023-06-10T04:25:46;93987.44;;;16.20;100.00
11339;BME280;5724;42.684;23.252;2023-06-10T04:28:12;93977.19;;;16.24;100.00
11339;BME280;5724;42.684;23.252;2023-06-10T04:30:37;93984.22;;;16.28;100.00
11339;BME280;5724;42.684;23.252;2023-06-10T04:33:03;93977.16;;;16.31;100.00
11339;BME280;5724;42.684;23.252;2023-06-10T04:35:29;93983.44;;;16.28;100.00
11339;BME280;5724;42.684;23.252;2023-06-10T04:37:54;93970.88;;;16.23;100.00
11339;BME280;5724;42.684;23.252;2023-06-10T04:40:20;93989.63;;;16.46;100.00
11339;BME280;5724;42.684;23.252;2023-06-10T04:42:45;93990.44;;;16.43;100.00
11339;BME280;5724;42.684;23.252;2023-06-10T04:45:11;93990.41;;;16.50;100.00
11339;BME280;5724;42.684;23.252;2023-06-10T04:47:36;93989.91;;;16.63;100.00
11339;BME280;5724;42.684;23.252;2023-06-10T04:50:02;93991.47;;;16.71;100.00
11339;BME280;5724;42.684;23.252;2023-06-10T04:52:28;93984.03;;;16.57;100.00
11339;BME280;5724;42.684;23.252;2023-06-10T04:54:54;93985.19;;;16.63;100.00
11339;BME280;5724;42.684;23.252;2023-06-10T04:57:20;93989.03;;;16.76;100.00
11339;BME280;5724;42.684;23.252;2023-06-10T04:59:47;93988.63;;;16.78;100.00
11339;BME280;5724;42.684;23.252;2023-06-10T05:02:12;93968.13;;;16.79;100.00
11339;BME280;5724;42.684;23.252;2023-06-10T05:04:38;93979.78;;;16.97;100.00
11339;BME280;5724;42.684;23.252;2023-06-10T05:07:04;93980.19;;;16.96;100.00
11339;BME280;5724;42.684;23.252;2023-06-10T05:09:30;93989.16;;;17.07;100.00
11339;BME280;5724;42.684;23.252;2023-06-10T05:11:55;93985.66;;;17.03;100.00
11339;BME280;5724;42.684;23.252;2023-06-10T05:14:21;93985.25;;;17.04;100.00
11339;BME280;5724;42.684;23.252;2023-06-10T05:16:47;93987.63;;;17.02;100.00
11339;BME280;5724;42.684;23.252;2023-06-10T05:19:13;93991.19;;;17.03;100.00
11339;BME280;5724;42.684;23.252;2023-06-10T05:21:38;93993.09;;;17.09;100.00
11339;BME280;5724;42.684;23.252;2023-06-10T05:24:04;93994.56;;;17.17;100.00
11339;BME280;5724;42.684;23.252;2023-06-10T05:26:29;93989.28;;;17.37;100.00
11339;BME280;5724;42.684;23.252;2023-06-10T05:28:57;93991.09;;;17.51;100.00
11339;BME280;5724;42.684;23.252;2023-06-10T05:31:23;93986.28;;;17.55;100.00
11339;BME280;5724;42.684;23.252;2023-06-10T05:33:48;93994.91;;;17.61;100.00
11339;BME280;5724;42.684;23.252;2023-06-10T05:36:14;93987.75;;;17.67;100.00
11339;BME280;5724;42.684;23.252;2023-06-10T05:38:39;93987.66;;;17.78;100.00
11339;BME280;5724;42.684;23.252;2023-06-10T05:41:05;93990.31;;;17.85;100.00
11339;BME280;5724;42.684;23.252;2023-06-10T05:43:30;93990.66;;;17.90;100.00
11339;BME280;5724;42.684;23.252;2023-06-10T05:45:56;93988.53;;;17.67;100.00
11339;BME280;5724;42.684;23.252;2023-06-10T05:48:21;93995.47;;;17.83;100.00
11339;BME280;5724;42.684;23.252;2023-06-10T05:50:47;93992.72;;;17.83;100.00
11339;BME280;5724;42.684;23.252;2023-06-10T05:53:14;94001.41;;;17.47;100.00
11339;BME280;5724;42.684;23.252;2023-06-10T05:55:44;93995.81;;;17.51;100.00
11339;BME280;5724;42.684;23.252;2023-06-10T05:58:10;93983.94;;;17.54;100.00
11339;BME280;5724;42.684;23.252;2023-06-10T06:00:38;94001.97;;;17.65;100.00
11339;BME280;5724;42.684;23.252;2023-06-10T06:03:03;93990.22;;;17.58;100.00
11339;BME280;5724;42.684;23.252;2023-06-10T06:05:29;93995.25;;;17.66;100.00
11339;BME280;5724;42.684;23.252;2023-06-10T06:08:06;93990.19;;;17.61;100.00
11339;BME280;5724;42.684;23.252;2023-06-10T06:10:32;93997.16;;;17.77;100.00
11339;BME280;5724;42.684;23.252;2023-06-10T06:12:58;94002.13;;;17.89;100.00
11339;BME280;5724;42.684;23.252;2023-06-10T06:15:24;94003.69;;;17.52;100.00
11339;BME280;5724;42.684;23.252;2023-06-10T06:17:49;94011.03;;;17.69;100.00
11339;BME280;5724;42.684;23.252;2023-06-10T06:20:18;94006.66;;;17.72;100.00
11339;BME280;5724;42.684;23.252;2023-06-10T06:22:44;94002.56;;;17.84;100.00
11339;BME280;5724;42.684;23.252;2023-06-10T06:25:10;94008.06;;;17.87;100.00
11339;BME280;5724;42.684;23.252;2023-06-10T06:27:35;94012.53;;;17.78;100.00
11339;BME280;5724;42.684;23.252;2023-06-10T06:30:01;94007.31;;;17.83;100.00
11339;BME280;5724;42.684;23.252;2023-06-10T06:32:26;94006.03;;;17.91;100.00
11339;BME280;5724;42.684;23.252;2023-06-10T06:34:53;94024.91;;;17.62;100.00
11339;BME280;5724;42.684;23.252;2023-06-10T06:37:23;94009.44;;;17.68;100.00
11339;BME280;5724;42.684;23.252;2023-06-10T06:39:52;94016.00;;;17.48;100.00
11339;BME280;5724;42.684;23.252;2023-06-10T06:42:22;94007.84;;;17.33;100.00
11339;BME280;5724;42.684;23.252;2023-06-10T06:44:47;94004.91;;;17.51;100.00
11339;BME280;5724;42.684;23.252;2023-06-10T06:47:13;94001.94;;;17.69;100.00
11339;BME280;5724;42.684;23.252;2023-06-10T06:49:38;93988.53;;;17.67;100.00
11339;BME280;5724;42.684;23.252;2023-06-10T06:52:04;93993.75;;;17.96;100.00
11339;BME280;5724;42.684;23.252;2023-06-10T06:54:30;93994.94;;;17.95;100.00
11339;BME280;5724;42.684;23.252;2023-06-10T06:56:55;93995.84;;;17.85;100.00
11339;BME280;5724;42.684;23.252;2023-06-10T06:59:21;94001.00;;;18.13;100.00
11339;BME280;5724;42.684;23.252;2023-06-10T07:01:47;93997.88;;;18.11;100.00
11339;BME280;5724;42.684;23.252;2023-06-10T07:04:14;93978.09;;;18.13;100.00
11339;BME280;5724;42.684;23.252;2023-06-10T07:06:40;93986.44;;;18.40;100.00
11339;BME280;5724;42.684;23.252;2023-06-10T07:09:05;93987.31;;;18.60;100.00
11339;BME280;5724;42.684;23.252;2023-06-10T07:11:31;93984.91;;;18.62;100.00
11339;BME280;5724;42.684;23.252;2023-06-10T07:13:57;93988.09;;;18.87;100.00
11339;BME280;5724;42.684;23.252;2023-06-10T07:16:22;93984.91;;;18.89;100.00
11339;BME280;5724;42.684;23.252;2023-06-10T07:18:48;93980.44;;;19.19;99.59
11339;BME280;5724;42.684;23.252;2023-06-10T07:21:13;93973.28;;;18.98;100.00
11339;BME280;5724;42.684;23.252;2023-06-10T07:23:42;93978.47;;;19.19;99.07
11339;BME280;5724;42.684;23.252;2023-06-10T07:26:10;93976.69;;;19.29;95.59
11339;BME280;5724;42.684;23.252;2023-06-10T07:28:37;93984.94;;;19.56;94.14
11339;BME280;5724;42.684;23.252;2023-06-10T07:31:03;93983.41;;;19.75;91.45
11339;BME280;5724;42.684;23.252;2023-06-10T07:33:29;93984.25;;;19.91;91.36
11339;BME280;5724;42.684;23.252;2023-06-10T07:35:54;93988.28;;;20.07;85.02
11339;BME280;5724;42.684;23.252;2023-06-10T07:38:20;93989.00;;;20.11;88.25
11339;BME280;5724;42.684;23.252;2023-06-10T07:40:46;93985.13;;;19.88;90.14
11339;BME280;5724;42.684;23.252;2023-06-10T07:43:11;93984.16;;;20.15;85.20
11339;BME280;5724;42.684;23.252;2023-06-10T07:45:39;93990.25;;;20.46;83.85
11339;BME280;5724;42.684;23.252;2023-06-10T07:48:04;93999.22;;;20.70;83.70
11339;BME280;5724;42.684;23.252;2023-06-10T07:50:30;93982.38;;;20.24;80.94
11339;BME280;5724;42.684;23.252;2023-06-10T07:52:55;93959.94;;;20.35;81.41
11339;BME280;5724;42.684;23.252;2023-06-10T07:55:21;93992.72;;;20.40;75.99
11339;BME280;5724;42.684;23.252;2023-06-10T07:57:46;93990.44;;;20.35;77.05
11339;BME280;5724;42.684;23.252;2023-06-10T08:00:12;93989.47;;;20.45;77.03
11339;BME280;5724;42.684;23.252;2023-06-10T08:02:38;93989.94;;;20.60;76.62
11339;BME280;5724;42.684;23.252;2023-06-10T08:05:04;93985.09;;;20.80;75.73
11339;BME280;5724;42.684;23.252;2023-06-10T08:07:29;93983.63;;;21.08;75.83
11339;BME280;5724;42.684;23.252;2023-06-10T08:09:56;93989.88;;;20.96;76.10
11339;BME280;5724;42.684;23.252;2023-06-10T08:12:21;93982.56;;;21.19;77.01
11339;BME280;5724;42.684;23.252;2023-06-10T08:14:47;93982.91;;;21.53;76.88
11339;BME280;5724;42.684;23.252;2023-06-10T08:17:13;93984.38;;;21.87;75.56
11339;BME280;5724;42.684;23.252;2023-06-10T08:19:39;93979.53;;;21.75;74.90
11339;BME280;5724;42.684;23.252;2023-06-10T08:22:04;93977.50;;;21.91;75.57
11339;BME280;5724;42.684;23.252;2023-06-10T08:24:30;93974.88;;;21.71;74.22
11339;BME280;5724;42.684;23.252;2023-06-10T08:26:55;93972.16;;;21.97;74.75
11339;BME280;5724;42.684;23.252;2023-06-10T08:29:22;93961.81;;;21.97;74.07
11339;BME280;5724;42.684;23.252;2023-06-10T08:31:48;93970.72;;;21.92;70.23
11339;BME280;5724;42.684;23.252;2023-06-10T08:34:13;93959.09;;;22.10;69.72
11339;BME280;5724;42.684;23.252;2023-06-10T08:36:39;93961.78;;;22.26;70.40
11339;BME280;5724;42.684;23.252;2023-06-10T08:39:04;93954.00;;;22.21;71.88
11339;BME280;5724;42.684;23.252;2023-06-10T08:41:35;93955.47;;;21.97;68.95
11339;BME280;5724;42.684;23.252;2023-06-10T08:44:12;93957.16;;;21.65;70.17
11339;BME280;5724;42.684;23.252;2023-06-10T08:46:45;93958.56;;;21.57;69.82
11339;BME280;5724;42.684;23.252;2023-06-10T08:49:18;93953.66;;;21.61;70.09
11339;BME280;5724;42.684;23.252;2023-06-10T08:51:45;93946.66;;;21.98;70.05
11339;BME280;5724;42.684;23.252;2023-06-10T08:54:22;93944.50;;;22.19;69.60
11339;BME280;5724;42.684;23.252;2023-06-10T08:56:51;93938.44;;;22.62;68.48
11339;BME280;5724;42.684;23.252;2023-06-10T08:59:18;93948.56;;;22.94;65.75
11339;BME280;5724;42.684;23.252;2023-06-10T09:01:45;93932.56;;;23.20;65.44
11339;BME280;5724;42.684;23.252;2023-06-10T09:04:11;93936.56;;;23.32;64.07
11339;BME280;5724;42.684;23.252;2023-06-10T09:06:37;93930.16;;;23.09;61.99
11339;BME280;5724;42.684;23.252;2023-06-10T09:09:05;93926.63;;;22.33;61.76
11339;BME280;5724;42.684;23.252;2023-06-10T09:11:31;93927.44;;;22.04;63.61
11339;BME280;5724;42.684;23.252;2023-06-10T09:13:56;93914.50;;;21.97;64.73
11339;BME280;5724;42.684;23.252;2023-06-10T09:16:23;93918.16;;;22.49;64.82
11339;BME280;5724;42.684;23.252;2023-06-10T09:18:49;93936.97;;;22.45;65.46
11339;BME280;5724;42.684;23.252;2023-06-10T09:21:21;93927.97;;;22.41;65.20
11339;BME280;5724;42.684;23.252;2023-06-10T09:23:48;93917.72;;;22.50;64.96
11339;BME280;5724;42.684;23.252;2023-06-10T09:26:13;93922.38;;;22.53;65.93
11339;BME280;5724;42.684;23.252;2023-06-10T09:28:42;93905.69;;;22.53;63.04
11339;BME280;5724;42.684;23.252;2023-06-10T09:31:08;93923.59;;;22.65;60.83
11339;BME280;5724;42.684;23.252;2023-06-10T09:33:38;93919.69;;;22.75;60.72
11339;BME280;5724;42.684;23.252;2023-06-10T09:36:07;93920.81;;;22.27;57.11
11339;BME280;5724;42.684;23.252;2023-06-10T09:38:34;93893.75;;;22.15;56.77
11339;BME280;5724;42.684;23.252;2023-06-10T09:41:00;93913.38;;;22.24;58.17
11339;BME280;5724;42.684;23.252;2023-06-10T09:43:54;93909.47;;;22.60;58.49
11339;BME280;5724;42.684;23.252;2023-06-10T09:46:20;93907.78;;;22.62;54.43
11339;BME280;5724;42.684;23.252;2023-06-10T09:48:46;93896.53;;;22.66;57.70
11339;BME280;5724;42.684;23.252;2023-06-10T09:51:14;93902.09;;;22.78;56.33
11339;BME280;5724;42.684;23.252;2023-06-10T09:53:39;93897.63;;;22.94;56.16
11339;BME280;5724;42.684;23.252;2023-06-10T09:56:06;93898.81;;;23.05;56.37
11339;BME280;5724;42.684;23.252;2023-06-10T09:58:38;93892.41;;;23.30;57.18
11339;BME280;5724;42.684;23.252;2023-06-10T10:01:12;93892.47;;;23.05;57.31
11339;BME280;5724;42.684;23.252;2023-06-10T10:03:49;93897.25;;;23.17;57.36
11339;BME280;5724;42.684;23.252;2023-06-10T10:06:16;93886.97;;;23.49;59.28
11339;BME280;5724;42.684;23.252;2023-06-10T10:08:41;93888.72;;;23.68;59.26
11339;BME280;5724;42.684;23.252;2023-06-10T10:11:08;93889.44;;;23.47;55.48
11339;BME280;5724;42.684;23.252;2023-06-10T10:13:35;93883.97;;;23.43;55.66
11339;BME280;5724;42.684;23.252;2023-06-10T10:16:11;93887.84;;;23.80;57.56
11339;BME280;5724;42.684;23.252;2023-06-10T10:18:39;93878.78;;;24.20;54.93
11339;BME280;5724;42.684;23.252;2023-06-10T10:21:11;93877.69;;;24.48;53.53
11339;BME280;5724;42.684;23.252;2023-06-10T10:24:26;93875.16;;;24.72;51.48
11339;BME280;5724;42.684;23.252;2023-06-10T10:26:27;93862.44;;;24.90;50.55
11339;BME280;5724;42.684;23.252;2023-06-10T10:29:08;93870.41;;;24.51;50.75
11339;BME280;5724;42.684;23.252;2023-06-10T10:31:36;93863.31;;;24.28;51.84
11339;BME280;5724;42.684;23.252;2023-06-10T10:34:07;93869.19;;;24.52;53.15
11339;BME280;5724;42.684;23.252;2023-06-10T10:36:32;93870.69;;;24.13;51.10
11339;BME280;5724;42.684;23.252;2023-06-10T10:38:59;93866.81;;;24.50;51.14
11339;BME280;5724;42.684;23.252;2023-06-10T10:41:28;93862.78;;;25.01;52.22
11339;BME280;5724;42.684;23.252;2023-06-10T10:43:55;93853.91;;;24.93;50.49
11339;BME280;5724;42.684;23.252;2023-06-10T10:46:21;93864.25;;;25.51;50.59
11339;BME280;5724;42.684;23.252;2023-06-10T10:48:52;93853.06;;;25.42;50.40
11339;BME280;5724;42.684;23.252;2023-06-10T10:51:17;93851.09;;;24.75;50.10
11339;BME280;5724;42.684;23.252;2023-06-10T10:53:43;93849.75;;;24.48;50.29
11339;BME280;5724;42.684;23.252;2023-06-10T10:56:16;93848.47;;;24.80;48.46
11339;BME280;5724;42.684;23.252;2023-06-10T10:59:04;93844.41;;;24.72;47.55
11339;BME280;5724;42.684;23.252;2023-06-10T11:01:41;93837.91;;;24.84;47.63
11339;BME280;5724;42.684;23.252;2023-06-10T11:04:08;93834.88;;;25.19;48.16
11339;BME280;5724;42.684;23.252;2023-06-10T11:06:34;93831.28;;;25.74;48.02
11339;BME280;5724;42.684;23.252;2023-06-10T11:09:00;93829.69;;;26.00;50.15
11339;BME280;5724;42.684;23.252;2023-06-10T11:11:27;93827.72;;;26.24;49.11
11339;BME280;5724;42.684;23.252;2023-06-10T11:16:42;93822.75;;;25.77;51.04
11339;BME280;5724;42.684;23.252;2023-06-10T11:19:08;93821.78;;;25.62;47.87
11339;BME280;5724;42.684;23.252;2023-06-10T11:21:57;93824.59;;;25.44;46.48
11339;BME280;5724;42.684;23.252;2023-06-10T11:24:24;93819.94;;;25.50;48.58
11339;BME280;5724;42.684;23.252;2023-06-10T11:26:51;93814.34;;;25.77;48.67
11339;BME280;5724;42.684;23.252;2023-06-10T11:29:17;93805.81;;;26.14;46.14
11339;BME280;5724;42.684;23.252;2023-06-10T11:31:50;93804.13;;;26.16;46.31
11339;BME280;5724;42.684;23.252;2023-06-10T11:34:22;93802.06;;;26.26;44.19
11339;BME280;5724;42.684;23.252;2023-06-10T11:36:52;93799.81;;;26.06;45.55
11339;BME280;5724;42.684;23.252;2023-06-10T11:39:20;93798.06;;;26.09;46.03
11339;BME280;5724;42.684;23.252;2023-06-10T11:41:45;93791.44;;;25.97;45.64
11339;BME280;5724;42.684;23.252;2023-06-10T11:44:14;93797.84;;;25.79;48.36
11339;BME280;5724;42.684;23.252;2023-06-10T11:46:41;93781.09;;;25.70;48.45
11339;BME280;5724;42.684;23.252;2023-06-10T11:49:08;93799.41;;;25.62;48.25
11339;BME280;5724;42.684;23.252;2023-06-10T11:51:38;93789.03;;;25.17;49.67
11339;BME280;5724;42.684;23.252;2023-06-10T11:54:06;93797.44;;;25.17;49.16
11339;BME280;5724;42.684;23.252;2023-06-10T11:56:31;93796.19;;;25.08;50.56
11339;BME280;5724;42.684;23.252;2023-06-10T11:59:00;93797.44;;;25.17;49.06
11339;BME280;5724;42.684;23.252;2023-06-10T12:01:36;93793.66;;;24.74;50.50
11339;BME280;5724;42.684;23.252;2023-06-10T12:04:04;93791.53;;;25.15;53.74
11339;BME280;5724;42.684;23.252;2023-06-10T12:06:46;93791.84;;;25.35;50.33
11339;BME280;5724;42.684;23.252;2023-06-10T12:09:23;93787.28;;;25.56;49.54
11339;BME280;5724;42.684;23.252;2023-06-10T12:11:51;93786.50;;;25.64;49.08
11339;BME280;5724;42.684;23.252;2023-06-10T12:20:00;93771.16;;;24.77;47.31
11339;BME280;5724;42.684;23.252;2023-06-10T12:22:26;93789.94;;;24.86;49.22
11339;BME280;5724;42.684;23.252;2023-06-10T12:24:58;93795.00;;;24.51;48.02
11339;BME280;5724;42.684;23.252;2023-06-10T12:27:25;93783.56;;;24.18;47.61
11339;BME280;5724;42.684;23.252;2023-06-10T12:29:53;93789.16;;;23.87;47.53
11339;BME280;5724;42.684;23.252;2023-06-10T12:32:19;93773.69;;;23.64;47.67
11339;BME280;5724;42.684;23.252;2023-06-10T12:34:48;93770.78;;;23.24;46.45
11339;BME280;5724;42.684;23.252;2023-06-10T12:37:13;93752.00;;;23.15;47.54
11339;BME280;5724;42.684;23.252;2023-06-10T12:39:40;93767.72;;;23.53;48.93
11339;BME280;5724;42.684;23.252;2023-06-10T12:42:06;93777.00;;;23.72;46.82
11339;BME280;5724;42.684;23.252;2023-06-10T12:44:39;93774.41;;;23.77;46.99
11339;BME280;5724;42.684;23.252;2023-06-10T12:47:11;93762.34;;;23.89;45.12
11339;BME280;5724;42.684;23.252;2023-06-10T12:49:40;93770.44;;;23.96;43.47
11339;BME280;5724;42.684;23.252;2023-06-10T12:52:06;93770.84;;;23.77;44.21
11339;BME280;5724;42.684;23.252;2023-06-10T12:54:34;93780.69;;;23.99;43.85
11339;BME280;5724;42.684;23.252;2023-06-10T12:56:59;93777.63;;;24.07;45.11
11339;BME280;5724;42.684;23.252;2023-06-10T12:59:26;93783.22;;;24.07;44.59
11339;BME280;5724;42.684;23.252;2023-06-10T13:01:53;93779.72;;;23.84;43.93
11339;BME280;5724;42.684;23.252;2023-06-10T13:04:20;93775.50;;;23.80;44.31